Time;durP1;ratioP1;P1;durP2;ratioP2;P2;SDS_P1;SDS_P2;PMS_P1;PMS_P2;Temp;Humidity;BMP_temperature;BMP_pressure;BME280_temperature;BME280_humidity;BME280_pressure;Samples;Min_cycle;Max_cycle;Signal;HPM_P1;HPM_P2
2022/07/19 00:00:30;;;;;;;1999.90;999.90;;;;;;;19.81;100.00;95827.47;5011280;28;20195;-61
2022/07/19 00:02:56;;;;;;;1999.90;999.90;;;;;;;19.79;100.00;95824.41;5011328;28;20200;-67
2022/07/19 00:05:21;;;;;;;1999.90;999.90;;;;;;;19.74;100.00;95826.97;5011029;28;20315;-63
2022/07/19 00:07:47;;;;;;;1999.90;999.90;;;;;;;19.75;100.00;95829.31;4994702;28;20202;-64
2022/07/19 00:10:14;;;;;;;1999.90;999.90;;;;;;;19.76;100.00;95830.06;4994698;28;20200;-66
2022/07/19 00:12:40;;;;;;;1999.90;999.90;;;;;;;19.75;100.00;95823.75;4994816;28;20191;-66
2022/07/19 00:15:08;;;;;;;1999.90;999.90;;;;;;;19.72;100.00;95824.66;4995667;28;20206;-66
2022/07/19 00:17:34;;;;;;;1999.90;999.90;;;;;;;19.62;100.00;95825.06;4994930;28;20202;-66
2022/07/19 00:19:59;;;;;;;1999.90;999.90;;;;;;;19.67;100.00;95822.47;4994907;28;20195;-64
2022/07/19 00:22:25;;;;;;;1999.90;999.90;;;;;;;19.72;100.00;95821.88;4995069;28;20203;-66
2022/07/19 00:24:50;;;;;;;1999.90;999.90;;;;;;;19.70;100.00;95818.03;4995241;28;20184;-61
2022/07/19 00:27:15;;;;;;;1999.90;999.90;;;;;;;19.67;100.00;95816.94;5011079;28;20211;-61
2022/07/19 00:29:41;;;;;;;1999.90;999.90;;;;;;;19.66;100.00;95820.91;5010862;28;20250;-61
2022/07/19 00:32:06;;;;;;;1999.90;999.90;;;;;;;19.71;100.00;95825.88;4994648;28;20188;-61
2022/07/19 00:34:32;;;;;;;1999.90;999.90;;;;;;;19.66;100.00;95815.38;4994495;28;20200;-61
2022/07/19 00:36:57;;;;;;;1999.90;999.90;;;;;;;19.59;100.00;95823.19;5010888;28;20204;-62
2022/07/19 00:39:23;;;;;;;1999.90;999.90;;;;;;;19.53;100.00;95817.44;5010739;28;20278;-60
2022/07/19 00:41:48;;;;;;;1999.90;999.90;;;;;;;19.46;100.00;95821.22;5010800;28;20192;-64
2022/07/19 00:44:13;;;;;;;1999.90;999.90;;;;;;;19.45;100.00;95816.91;5010564;28;20282;-63
2022/07/19 00:46:39;;;;;;;1999.90;999.90;;;;;;;19.41;100.00;95812.72;4994290;28;20191;-65
2022/07/19 00:49:05;;;;;;;1999.90;999.90;;;;;;;19.39;100.00;95813.19;4994238;28;20199;-62
2022/07/19 00:51:34;;;;;;;1999.90;999.90;;;;;;;19.41;100.00;95815.47;4994359;28;20227;-63
2022/07/19 00:54:01;;;;;;;1999.90;999.90;;;;;;;19.39;100.00;95806.84;4994734;28;20184;-63
2022/07/19 00:56:28;;;;;;;1999.90;999.90;;;;;;;19.35;100.00;95800.69;4994260;28;20202;-63
2022/07/19 00:58:54;;;;;;;1999.90;999.90;;;;;;;19.31;100.00;95805.56;5010599;28;20229;-69
2022/07/19 01:01:19;;;;;;;1999.90;999.90;;;;;;;19.32;100.00;95801.56;5090281;22;20180;-65
2022/07/19 01:03:47;;;;;;;1999.90;999.90;;;;;;;19.31;100.00;95800.03;5036794;28;20221;-64
2022/07/19 01:06:12;;;;;;;1999.90;999.90;;;;;;;19.29;100.00;95802.47;5036383;28;20189;-65
2022/07/19 01:08:37;;;;;;;1999.90;999.90;;;;;;;19.23;100.00;95798.72;5036646;28;20239;-66
2022/07/19 01:11:05;;;;;;;1999.90;999.90;;;;;;;19.16;100.00;95798.94;5053025;28;20213;-65
2022/07/19 01:13:31;;;;;;;1999.90;999.90;;;;;;;19.12;100.00;95795.50;5036665;28;20189;-64
2022/07/19 01:15:57;;;;;;;1999.90;999.90;;;;;;;19.07;100.00;95796.09;5035985;28;20198;-63
2022/07/19 01:18:22;;;;;;;1999.90;999.90;;;;;;;19.01;100.00;95797.88;5037274;28;20200;-56
2022/07/19 01:20:48;;;;;;;1999.90;999.90;;;;;;;19.00;100.00;95790.78;5053145;28;20253;-61
2022/07/19 01:23:13;;;;;;;1999.90;999.90;;;;;;;18.96;100.00;95792.91;5053020;28;20186;-64
2022/07/19 01:25:39;;;;;;;1999.90;999.90;;;;;;;18.87;100.00;95785.28;5036365;28;20219;-63
2022/07/19 01:28:06;;;;;;;1999.90;999.90;;;;;;;18.83;100.00;95786.66;5053048;28;20197;-62
2022/07/19 01:30:32;;;;;;;1999.90;999.90;;;;;;;18.77;100.00;95783.69;5052785;28;20205;-64
2022/07/19 01:32:58;;;;;;;1999.90;999.90;;;;;;;18.75;100.00;95779.78;5053072;28;20292;-67
2022/07/19 01:35:24;;;;;;;1999.90;999.90;;;;;;;18.74;100.00;95794.84;5053168;28;20186;-49
2022/07/19 01:37:50;;;;;;;1999.90;999.90;;;;;;;18.75;100.00;95786.09;5036342;28;20235;-57
2022/07/19 01:40:17;;;;;;;1999.90;999.90;;;;;;;18.75;100.00;95790.84;5036246;28;20190;-57
2022/07/19 01:42:44;;;;;;;1999.90;999.90;;;;;;;18.71;100.00;95784.66;5036238;28;20190;-58
2022/07/19 01:45:10;;;;;;;1999.90;999.90;;;;;;;18.66;100.00;95788.00;5036034;28;20189;-60
2022/07/19 01:47:37;;;;;;;1999.90;999.90;;;;;;;18.62;100.00;95793.66;5036302;28;20204;-59
2022/07/19 01:50:04;;;;;;;1999.90;999.90;;;;;;;18.66;100.00;95799.06;5035865;28;20220;-58
2022/07/19 01:52:29;;;;;;;1999.90;999.90;;;;;;;18.66;100.00;95799.88;5036049;28;20259;-58
2022/07/19 01:54:55;;;;;;;1999.90;999.90;;;;;;;18.60;100.00;95795.31;5052763;28;20193;-56
2022/07/19 01:57:20;;;;;;;1999.90;999.90;;;;;;;18.61;100.00;95788.59;5053019;28;20182;-60
2022/07/19 01:59:45;;;;;;;1999.90;999.90;;;;;;;18.61;100.00;95791.34;5052462;28;20197;-58
2022/07/19 02:02:11;;;;;;;1999.90;999.90;;;;;;;18.58;100.00;95792.22;5052566;28;20217;-58
2022/07/19 02:04:36;;;;;;;1999.90;999.90;;;;;;;18.47;100.00;95786.28;5052440;28;20225;-58
2022/07/19 02:07:02;;;;;;;1999.90;999.90;;;;;;;18.39;100.00;95784.97;5053097;28;20178;-59
2022/07/19 02:09:28;;;;;;;1999.90;999.90;;;;;;;18.26;100.00;95776.63;5052861;28;20210;-61
2022/07/19 02:11:53;;;;;;;1999.90;999.90;;;;;;;18.11;100.00;95769.22;5052801;28;20216;-60
2022/07/19 02:14:19;;;;;;;1999.90;999.90;;;;;;;17.99;100.00;95756.94;5052223;28;20186;-57
2022/07/19 02:16:44;;;;;;;1999.90;999.90;;;;;;;17.84;100.00;95755.81;5052267;28;20215;-66
2022/07/19 02:19:10;;;;;;;1999.90;999.90;;;;;;;17.75;100.00;95752.97;5035691;28;20198;-61
2022/07/19 02:21:36;;;;;;;1999.90;999.90;;;;;;;17.64;100.00;95741.44;5035856;28;20190;-65
2022/07/19 02:24:02;;;;;;;1999.90;999.90;;;;;;;17.57;100.00;95740.88;5035452;28;20269;-65
2022/07/19 02:26:28;;;;;;;1999.90;999.90;;;;;;;17.56;100.00;95736.56;5052106;28;20198;-65
2022/07/19 02:28:53;;;;;;;1999.90;999.90;;;;;;;17.60;100.00;95740.00;5053817;28;20197;-64
2022/07/19 02:31:19;;;;;;;1999.90;999.90;;;;;;;17.51;100.00;95734.34;5055693;28;20205;-61
2022/07/19 02:33:45;;;;;;;1999.90;999.90;;;;;;;17.50;100.00;95735.56;5055833;28;20201;-51
2022/07/19 02:36:10;;;;;;;1999.90;999.90;;;;;;;17.46;100.00;95721.88;5055439;28;20194;-55
2022/07/19 02:38:36;;;;;;;1999.90;999.90;;;;;;;17.45;100.00;95722.31;5055560;28;20196;-54
2022/07/19 02:41:01;;;;;;;1999.90;999.90;;;;;;;17.38;100.00;95723.25;5056258;28;20186;-56
2022/07/19 02:43:26;;;;;;;1999.90;999.90;;;;;;;17.40;100.00;95720.03;5038735;28;20285;-57
2022/07/19 02:45:53;;;;;;;1999.90;999.90;;;;;;;17.36;100.00;95719.38;5055659;28;20196;-55
2022/07/19 02:48:18;;;;;;;1999.90;999.90;;;;;;;17.36;100.00;95720.16;5056683;28;20197;-47
2022/07/19 02:50:43;;;;;;;1999.90;999.90;;;;;;;17.32;100.00;95713.19;5055509;28;20210;-59
2022/07/19 02:53:09;;;;;;;1999.90;999.90;;;;;;;17.25;100.00;95725.22;5039255;28;20235;-57
2022/07/19 02:55:34;;;;;;;1999.90;999.90;;;;;;;17.20;100.00;95722.22;5054981;28;20276;-55
2022/07/19 02:58:00;;;;;;;1999.90;999.90;;;;;;;17.27;100.00;95719.25;5055169;28;20228;-51
2022/07/19 03:00:26;;;;;;;1999.90;999.90;;;;;;;17.30;100.00;95721.16;5055280;28;20239;-53
2022/07/19 03:02:51;;;;;;;1999.90;999.90;;;;;;;17.24;100.00;95731.16;5038676;28;20217;-55
2022/07/19 03:05:17;;;;;;;1999.90;999.90;;;;;;;17.21;100.00;95734.78;5055267;28;20189;-55
2022/07/19 03:07:42;;;;;;;1999.90;999.90;;;;;;;17.20;100.00;95731.28;5055020;28;20196;-55
2022/07/19 03:10:08;;;;;;;1999.90;999.90;;;;;;;17.15;100.00;95736.56;5055251;28;20236;-54
2022/07/19 03:12:34;;;;;;;1999.90;999.90;;;;;;;17.15;100.00;95729.78;5038364;28;20243;-53
2022/07/19 03:14:59;;;;;;;1999.90;999.90;;;;;;;17.00;100.00;95724.38;5054963;28;20193;-49
2022/07/19 03:17:24;;;;;;;1999.90;999.90;;;;;;;17.01;100.00;95725.91;5054763;28;20261;-55
2022/07/19 03:19:50;;;;;;;1999.90;999.90;;;;;;;17.03;100.00;95729.78;5038487;28;20190;-53
2022/07/19 03:22:15;;;;;;;1999.90;999.90;;;;;;;17.04;100.00;95730.56;5054933;28;20257;-51
2022/07/19 03:24:41;;;;;;;1999.90;999.90;;;;;;;17.11;100.00;95727.59;5054879;28;20186;-49
2022/07/19 03:27:06;;;;;;;1999.90;999.90;;;;;;;17.09;100.00;95722.53;5055032;28;20190;-60
2022/07/19 03:29:31;;;;;;;1999.90;999.90;;;;;;;17.11;100.00;95722.84;5054809;28;20190;-63
2022/07/19 03:31:57;;;;;;;1999.90;999.90;;;;;;;17.14;100.00;95723.94;5038213;28;20228;-65
2022/07/19 03:34:23;;;;;;;1999.90;999.90;;;;;;;17.26;100.00;95726.75;5038550;28;20248;-65
2022/07/19 03:36:48;;;;;;;1999.90;999.90;;;;;;;17.28;100.00;95718.81;5038387;28;20194;-62
2022/07/19 03:39:14;;;;;;;1999.90;999.90;;;;;;;17.20;100.00;95722.22;5053907;28;20186;-65
2022/07/19 03:41:39;;;;;;;1999.90;999.90;;;;;;;17.17;100.00;95721.09;5054622;28;20185;-64
2022/07/19 03:44:04;;;;;;;1999.90;999.90;;;;;;;17.17;100.00;95723.09;5054809;28;20182;-56
2022/07/19 03:46:30;;;;;;;1999.90;999.90;;;;;;;17.18;100.00;95719.09;5054615;28;20289;-54
2022/07/19 03:48:56;;;;;;;1999.90;999.90;;;;;;;17.27;100.00;95722.00;5054655;28;20189;-63
2022/07/19 03:51:23;;;;;;;1999.90;999.90;;;;;;;17.31;100.00;95722.69;5054266;28;20213;-66
2022/07/19 03:53:48;;;;;;;1999.90;999.90;;;;;;;17.25;100.00;95735.47;5037946;28;20194;-64
2022/07/19 03:56:14;;;;;;;1999.90;999.90;;;;;;;17.35;100.00;95728.88;5054398;28;20193;-66
2022/07/19 03:58:39;;;;;;;1999.90;999.90;;;;;;;17.42;100.00;95740.53;5037819;28;20280;-64
2022/07/19 04:01:06;;;;;;;1999.90;999.90;;;;;;;17.51;100.00;95748.16;5054629;28;20182;-64
2022/07/19 04:03:39;;;;;;;1999.90;999.90;;;;;;;17.68;100.00;95746.84;5054672;28;20186;-50
2022/07/19 04:06:06;;;;;;;1999.90;999.90;;;;;;;18.00;100.00;95754.97;5054624;28;20189;-56
2022/07/19 04:08:33;;;;;;;1999.90;999.90;;;;;;;18.26;100.00;95765.56;5055487;28;20197;-51
2022/07/19 04:10:59;;;;;;;1999.90;999.90;;;;;;;18.56;100.00;95764.22;5054228;28;20205;-55
2022/07/19 04:13:24;;;;;;;1999.90;999.90;;;;;;;18.74;100.00;95767.19;5054339;28;20197;-54
2022/07/19 04:15:49;;;;;;;1999.90;999.90;;;;;;;19.05;100.00;95770.88;5054162;28;20197;-56
2022/07/19 04:18:15;;;;;;;1999.90;999.90;;;;;;;19.33;100.00;95776.19;5053710;28;20189;-56
2022/07/19 04:20:41;;;;;;;1999.90;999.90;;;;;;;19.59;100.00;95784.38;5054058;28;20194;-71
2022/07/19 04:23:06;;;;;;;1999.90;999.90;;;;;;;20.06;100.00;95788.50;5053904;28;20200;-60
2022/07/19 04:25:32;;;;;;;1999.90;999.90;;;;;;;20.39;100.00;95789.59;5053834;28;20231;-58
2022/07/19 04:27:57;;;;;;;1999.90;999.90;;;;;;;20.62;100.00;95800.19;5053652;28;20239;-60
2022/07/19 04:30:22;;;;;;;1999.90;999.90;;;;;;;20.87;100.00;95791.56;5037413;28;20293;-57
2022/07/19 04:32:48;;;;;;;1999.90;999.90;;;;;;;21.07;97.42;95797.50;5037377;28;20220;-59
2022/07/19 04:35:15;;;;;;;1999.90;999.90;;;;;;;21.45;94.95;95797.81;5053761;28;20202;-59
2022/07/19 04:37:41;;;;;;;1999.90;999.90;;;;;;;21.56;94.74;95798.13;5053181;28;20182;-58
2022/07/19 04:40:07;;;;;;;1999.90;999.90;;;;;;;22.05;91.23;95793.16;5037637;28;20181;-59
2022/07/19 04:42:33;;;;;;;1999.90;999.90;;;;;;;22.11;89.68;95788.47;5053543;28;20194;-60
2022/07/19 04:44:58;;;;;;;1999.90;999.90;;;;;;;22.43;88.70;95793.31;5054031;28;20280;-57
2022/07/19 04:47:23;;;;;;;1999.90;999.90;;;;;;;22.66;84.63;95785.50;5053348;28;20181;-62
2022/07/19 04:49:49;;;;;;;1999.90;999.90;;;;;;;22.69;84.89;95787.34;5053284;28;20181;-62
2022/07/19 04:52:14;;;;;;;1999.90;999.90;;;;;;;23.13;82.09;95782.75;5052718;28;20186;-60
2022/07/19 04:54:39;;;;;;;1999.90;999.90;;;;;;;23.66;79.68;95791.94;5054540;28;20208;-60
2022/07/19 04:57:05;;;;;;;1999.90;999.90;;;;;;;23.99;77.21;95792.56;5053372;28;20276;-58
2022/07/19 04:59:30;;;;;;;1999.90;999.90;;;;;;;24.32;73.73;95801.50;5053996;28;20189;-69
2022/07/19 05:01:55;;;;;;;1999.90;999.90;;;;;;;24.53;73.47;95808.72;5053360;28;20221;-66
2022/07/19 05:04:21;;;;;;;1999.90;999.90;;;;;;;24.70;70.60;95802.16;5036853;28;20193;-68
2022/07/19 05:06:46;;;;;;;1999.90;999.90;;;;;;;24.79;70.75;95801.28;5053119;28;20197;-70
2022/07/19 05:09:12;;;;;;;1999.90;999.90;;;;;;;25.06;68.90;95806.50;5036543;28;20300;-66
2022/07/19 05:11:37;;;;;;;1999.90;999.90;;;;;;;24.62;68.49;95803.06;5052694;28;20260;-69
2022/07/19 05:14:02;;;;;;;1999.90;999.90;;;;;;;25.01;69.37;95798.78;5053252;28;20190;-62
2022/07/19 05:16:28;;;;;;;1999.90;999.90;;;;;;;25.07;68.20;95802.44;5053107;28;20197;-61
2022/07/19 05:18:53;;;;;;;1999.90;999.90;;;;;;;25.86;65.08;95805.72;5053161;28;20185;-61
2022/07/19 05:21:18;;;;;;;1999.90;999.90;;;;;;;26.39;61.47;95803.19;5053225;28;20274;-65
2022/07/19 05:23:44;;;;;;;1999.90;999.90;;;;;;;26.79;59.97;95798.19;5036439;28;20204;-70
2022/07/19 05:26:09;;;;;;;1999.90;999.90;;;;;;;27.16;57.83;95801.75;5052893;28;20185;-69
2022/07/19 05:28:35;;;;;;;1999.90;999.90;;;;;;;27.54;57.61;95803.97;5052815;28;20189;-77
2022/07/19 05:31:00;;;;;;;1999.90;999.90;;;;;;;27.87;56.44;95795.69;5036189;28;20206;-74
2022/07/19 05:33:27;;;;;;;1999.90;999.90;;;;;;;28.24;54.48;95804.72;5052974;28;20186;-70
2022/07/19 05:35:53;;;;;;;1999.90;999.90;;;;;;;28.50;54.12;95801.69;5036222;28;20178;-64
2022/07/19 05:38:18;;;;;;;1999.90;999.90;;;;;;;28.70;53.46;95795.03;5036097;28;20284;-59
2022/07/19 05:40:43;;;;;;;1999.90;999.90;;;;;;;29.08;50.83;95795.03;5052389;28;20180;-59
2022/07/19 05:43:09;;;;;;;1999.90;999.90;;;;;;;29.22;50.42;95793.19;5052427;28;20189;-60
2022/07/19 05:45:34;;;;;;;1999.90;999.90;;;;;;;29.91;48.70;95797.53;5052680;28;20221;-61
2022/07/19 05:48:00;;;;;;;1999.90;999.90;;;;;;;29.79;47.66;95796.06;5052703;28;20201;-58
2022/07/19 05:50:25;;;;;;;1999.90;999.90;;;;;;;28.47;50.79;95793.53;5052547;28;20213;-58
2022/07/19 05:52:50;;;;;;;1999.90;999.90;;;;;;;29.63;48.26;95794.09;5052660;28;20216;-65
2022/07/19 05:55:16;;;;;;;1999.90;999.90;;;;;;;30.07;47.71;95791.03;5035841;28;20193;-62
2022/07/19 05:57:41;;;;;;;1999.90;999.90;;;;;;;29.15;47.93;95793.72;5052804;28;20272;-62
2022/07/19 06:00:07;;;;;;;1999.90;999.90;;;;;;;30.01;46.49;95798.78;5052325;28;20193;-64
2022/07/19 06:02:33;;;;;;;1999.90;999.90;;;;;;;30.43;45.90;95787.75;5054683;28;20173;-62
2022/07/19 06:04:58;;;;;;;1999.90;999.90;;;;;;;29.56;48.38;95789.75;5059540;28;20204;-65
2022/07/19 06:07:23;;;;;;;1999.90;999.90;;;;;;;30.13;46.88;95784.09;5059176;28;20181;-63
2022/07/19 06:09:49;;;;;;;1999.90;999.90;;;;;;;30.54;45.47;95784.06;5058916;28;20209;-63
2022/07/19 06:12:14;;;;;;;1999.90;999.90;;;;;;;29.89;46.52;95788.84;5058817;28;20276;-68
2022/07/19 06:14:39;;;;;;;1999.90;999.90;;;;;;;30.86;45.37;95793.56;5058548;28;20185;-63
2022/07/19 06:17:05;;;;;;;1999.90;999.90;;;;;;;30.77;44.42;95788.28;5058743;28;20281;-66
2022/07/19 06:19:30;;;;;;;1999.90;999.90;;;;;;;30.98;43.46;95792.16;5059080;28;20186;-68
2022/07/19 06:21:56;;;;;;;1999.90;999.90;;;;;;;31.59;42.28;95792.28;5058821;28;20186;-65
2022/07/19 06:24:21;;;;;;;1999.90;999.90;;;;;;;30.54;44.47;95798.16;5059707;28;20181;-65
2022/07/19 06:26:46;;;;;;;1999.90;999.90;;;;;;;31.65;41.87;95798.66;5058699;28;20280;-67
2022/07/19 06:29:12;;;;;;;1999.90;999.90;;;;;;;32.07;41.35;95789.38;5060065;28;20245;-63
2022/07/19 06:31:37;;;;;;;1999.90;999.90;;;;;;;32.26;40.38;95792.94;5058780;28;20235;-61
2022/07/19 06:34:02;;;;;;;1999.90;999.90;;;;;;;32.46;41.05;95791.66;5041958;28;20182;-66
2022/07/19 06:36:28;;;;;;;1999.90;999.90;;;;;;;32.29;40.13;95789.03;5041969;28;20221;-69
2022/07/19 06:38:54;;;;;;;1999.90;999.90;;;;;;;31.95;40.73;95798.53;5042337;28;20190;-74
2022/07/19 06:41:19;;;;;;;1999.90;999.90;;;;;;;31.55;42.48;95797.47;5058584;28;20189;-75
2022/07/19 06:43:45;;;;;;;1999.90;999.90;;;;;;;31.96;40.63;95795.19;5058463;28;20178;-78
2022/07/19 06:46:10;;;;;;;1999.90;999.90;;;;;;;31.76;40.31;95790.03;5059028;28;20202;-68
2022/07/19 06:48:36;;;;;;;1999.90;999.90;;;;;;;31.62;40.79;95794.06;5042038;28;20265;-70
2022/07/19 06:51:01;;;;;;;1999.90;999.90;;;;;;;32.17;40.77;95790.53;5058635;28;20205;-61
2022/07/19 06:53:27;;;;;;;1999.90;999.90;;;;;;;31.96;40.56;95783.88;5058357;28;20185;-58
2022/07/19 06:55:53;;;;;;;1999.90;999.90;;;;;;;33.57;38.23;95783.50;5058517;28;20185;-55
2022/07/19 06:58:19;;;;;;;1999.90;999.90;;;;;;;32.16;38.51;95788.22;5042237;28;20193;-58
2022/07/19 07:00:45;;;;;;;1999.90;999.90;;;;;;;32.81;38.70;95794.91;5041438;28;20272;-59
2022/07/19 07:03:11;;;;;;;1999.90;999.90;;;;;;;32.85;38.46;95784.06;5058820;28;20185;-59
2022/07/19 07:05:36;;;;;;;1999.90;999.90;;;;;;;32.33;39.38;95789.53;5058125;28;20182;-57
2022/07/19 07:08:02;;;;;;;1999.90;999.90;;;;;;;32.98;38.35;95792.59;5058675;28;20213;-65
2022/07/19 07:10:27;;;;;;;1999.90;999.90;;;;;;;33.57;37.06;95785.56;5058251;28;20205;-59
2022/07/19 07:12:53;;;;;;;1999.90;999.90;;;;;;;33.05;38.08;95791.19;5041566;28;20193;-59
2022/07/19 07:15:18;;;;;;;1999.90;999.90;;;;;;;34.72;35.45;95787.16;5037793;28;20193;-54
2022/07/19 07:17:43;;;;;;;1999.90;999.90;;;;;;;36.51;33.03;95786.81;5055550;28;20278;-59
2022/07/19 07:20:10;;;;;;;1999.90;999.90;;;;;;;35.73;32.46;95796.16;5054872;28;20235;-61
2022/07/19 07:22:36;;;;;;;1999.90;999.90;;;;;;;35.76;32.72;95795.03;5038009;28;20231;-60
2022/07/19 07:25:02;;;;;;;1999.90;999.90;;;;;;;36.65;31.49;95788.19;5038162;28;20185;-66
2022/07/19 07:27:27;;;;;;;1999.90;999.90;;;;;;;35.10;34.30;95791.16;5038185;28;20184;-63
2022/07/19 07:29:54;;;;;;;1999.90;999.90;;;;;;;36.16;31.47;95799.03;5054517;28;20194;-60
2022/07/19 07:32:19;;;;;;;1999.90;999.90;;;;;;;34.69;33.81;95788.28;5054743;28;20181;-62
2022/07/19 07:34:45;;;;;;;1999.90;999.90;;;;;;;34.76;34.05;95779.84;5055040;28;20181;-62
2022/07/19 07:37:11;;;;;;;1999.90;999.90;;;;;;;35.87;33.22;95780.50;5038146;28;20231;-60
2022/07/19 07:39:37;;;;;;;1999.90;999.90;;;;;;;36.01;32.08;95781.91;5054468;28;20273;-60
2022/07/19 07:42:04;;;;;;;1999.90;999.90;;;;;;;35.80;32.81;95778.41;5055857;28;20174;-60
2022/07/19 07:44:30;;;;;;;1999.90;999.90;;;;;;;34.53;33.97;95783.78;5054833;28;20193;-64
2022/07/19 07:46:55;;;;;;;1999.90;999.90;;;;;;;36.04;32.75;95786.44;5038202;28;20185;-65
2022/07/19 07:49:21;;;;;;;1999.90;999.90;;;;;;;35.25;32.45;95774.22;5054515;28;20186;-64
2022/07/19 07:51:46;;;;;;;1999.90;999.90;;;;;;;37.21;29.89;95764.34;5055216;28;20197;-63
2022/07/19 07:54:12;;;;;;;1999.90;999.90;;;;;;;35.43;32.48;95784.59;5054269;28;20192;-66
2022/07/19 07:56:37;;;;;;;1999.90;999.90;;;;;;;35.46;31.63;95786.31;5054732;28;20240;-63
2022/07/19 07:59:03;;;;;;;1999.90;999.90;;;;;;;35.55;31.34;95775.19;5054359;28;20186;-62
2022/07/19 08:01:29;;;;;;;1999.90;999.90;;;;;;;35.18;32.09;95775.66;5054323;28;20192;-62
2022/07/19 08:03:55;;;;;;;1999.90;999.90;;;;;;;35.60;30.79;95773.50;5054797;28;20189;-62
2022/07/19 08:06:20;;;;;;;1999.90;999.90;;;;;;;35.76;31.05;95775.13;5054543;28;20174;-62
2022/07/19 08:08:45;;;;;;;1999.90;999.90;;;;;;;35.88;30.28;95779.19;5054073;28;20210;-65
2022/07/19 08:11:11;;;;;;;1999.90;999.90;;;;;;;35.75;30.84;95773.56;5037875;28;20202;-60
2022/07/19 08:13:36;;;;;;;1999.90;999.90;;;;;;;36.74;28.95;95766.97;5037473;28;20184;-64
2022/07/19 08:16:02;;;;;;;1999.90;999.90;;;;;;;35.73;29.16;95764.88;5053845;28;20182;-65
2022/07/19 08:18:27;;;;;;;1999.90;999.90;;;;;;;34.74;29.96;95781.72;5054066;28;20185;-66
2022/07/19 08:20:52;;;;;;;1999.90;999.90;;;;;;;35.03;30.39;95769.88;5054516;28;20221;-63
2022/07/19 08:23:18;;;;;;;1999.90;999.90;;;;;;;34.97;29.87;95771.34;5054785;28;20187;-62
2022/07/19 08:25:43;;;;;;;1999.90;999.90;;;;;;;35.37;28.99;95764.09;5053710;28;20211;-62
2022/07/19 08:28:08;;;;;;;1999.90;999.90;;;;;;;35.27;27.65;95771.56;5054115;28;20256;-64
2022/07/19 08:30:34;;;;;;;1999.90;999.90;;;;;;;33.68;30.13;95774.78;5053913;28;20202;-63
2022/07/19 08:33:00;;;;;;;1999.90;999.90;;;;;;;33.99;29.92;95758.16;5053706;28;20243;-62
2022/07/19 08:35:26;;;;;;;1999.90;999.90;;;;;;;34.83;28.30;95772.72;5053685;28;20197;-70
2022/07/19 08:37:51;;;;;;;1999.90;999.90;;;;;;;33.65;29.74;95764.53;5054118;28;20182;-64
2022/07/19 08:40:17;;;;;;;1999.90;999.90;;;;;;;34.82;28.36;95760.63;5053846;28;20186;-61
2022/07/19 08:42:42;;;;;;;1999.90;999.90;;;;;;;33.69;30.13;95770.63;5053708;28;20227;-71
2022/07/19 08:45:09;;;;;;;1999.90;999.90;;;;;;;33.61;29.85;95769.78;5037375;28;20189;-67
2022/07/19 08:47:35;;;;;;;1999.90;999.90;;;;;;;34.35;28.41;95762.00;5053312;28;20177;-63
2022/07/19 08:50:05;;;;;;;1999.90;999.90;;;;;;;33.35;30.29;95764.13;5036957;28;20194;-69
2022/07/19 08:52:32;;;;;;;1999.90;999.90;;;;;;;35.05;28.01;95766.47;5036845;28;20177;-66
2022/07/19 08:54:58;;;;;;;1999.90;999.90;;;;;;;35.13;26.63;95761.59;5053471;28;20216;-72
2022/07/19 09:00:08;;;;;;;1999.90;999.90;;;;;;;35.42;27.70;95757.47;5055150;28;20197;-63
2022/07/19 09:02:33;;;;;;;1999.90;999.90;;;;;;;35.20;26.59;95760.91;5036795;28;20194;-61
2022/07/19 09:05:10;;;;;;;1999.90;999.90;;;;;;;35.23;26.80;95757.72;5053470;28;20272;-63
2022/07/19 09:07:37;;;;;;;1999.90;999.90;;;;;;;33.97;27.49;95746.63;5036746;28;20181;-70
2022/07/19 09:10:16;;;;;;;1999.90;999.90;;;;;;;34.86;26.85;95748.91;5036341;28;20244;-65
2022/07/19 09:13:18;;;;;;;1999.90;999.90;;;;;;;36.29;25.50;95759.06;5053334;28;20212;-61
2022/07/19 09:15:53;;;;;;;1999.90;999.90;;;;;;;35.06;27.14;95756.66;4954287;29;20199;-63
2022/07/19 09:18:27;;;;;;;1999.90;999.90;;;;;;;34.89;27.28;95753.47;5039743;28;20204;-61
2022/07/19 09:20:56;;;;;;;1999.90;999.90;;;;;;;35.74;26.61;95746.47;5036518;28;20182;-61
2022/07/19 09:23:22;;;;;;;1999.90;999.90;;;;;;;36.82;25.54;95745.69;5053112;28;20189;-62
2022/07/19 09:25:59;;;;;;;1999.90;999.90;;;;;;;35.22;26.70;95752.59;5036269;28;20264;-62
2022/07/19 09:28:26;;;;;;;1999.90;999.90;;;;;;;34.58;26.77;95748.81;5052901;28;20272;-61
2022/07/19 09:30:54;;;;;;;1999.90;999.90;;;;;;;34.85;26.89;95747.38;5036270;28;20193;-61
2022/07/19 09:33:24;;;;;;;1999.90;999.90;;;;;;;33.84;27.24;95748.16;5036302;28;20193;-63
2022/07/19 09:35:58;;;;;;;1999.90;999.90;;;;;;;33.64;27.48;95734.66;5053247;28;20193;-75
2022/07/19 09:38:28;;;;;;;1999.90;999.90;;;;;;;36.29;25.74;95748.44;5052623;28;20185;-59
2022/07/19 09:41:15;;;;;;;1999.90;999.90;;;;;;;36.24;25.10;95740.81;5035965;28;20181;-63
2022/07/19 09:44:02;;;;;;;1999.90;999.90;;;;;;;35.16;26.22;95751.97;5036034;28;20228;-60
2022/07/19 09:46:30;;;;;;;1999.90;999.90;;;;;;;35.74;26.14;95750.09;5052876;28;20204;-63
2022/07/19 09:49:14;;;;;;;1999.90;999.90;;;;;;;35.21;26.00;95753.91;5052619;28;20177;-61
2022/07/19 09:51:43;;;;;;;1999.90;999.90;;;;;;;35.65;26.24;95732.78;5035991;28;20201;-62
2022/07/19 09:54:10;;;;;;;1999.90;999.90;;;;;;;35.24;26.24;95750.69;5036285;28;20202;-62
2022/07/19 09:56:37;;;;;;;1999.90;999.90;;;;;;;34.62;27.25;95729.38;5036066;28;20185;-67
2022/07/19 09:59:04;;;;;;;1999.90;999.90;;;;;;;34.76;26.97;95745.75;5053784;28;20177;-61
2022/07/19 10:01:30;;;;;;;1999.90;999.90;;;;;;;34.54;27.34;95734.97;5036374;28;20198;-67
2022/07/19 10:04:10;;;;;;;1999.90;999.90;;;;;;;35.11;26.58;95735.84;5052557;28;20182;-63
2022/07/19 10:06:36;;;;;;;1999.90;999.90;;;;;;;34.95;26.25;95740.63;5036528;28;20189;-67
2022/07/19 10:09:04;;;;;;;1999.90;999.90;;;;;;;35.12;27.27;95720.31;5036228;28;20194;-65
2022/07/19 10:11:30;;;;;;;1999.90;999.90;;;;;;;34.28;27.67;95728.63;5036046;28;20214;-63
2022/07/19 10:13:56;;;;;;;1999.90;999.90;;;;;;;34.19;28.04;95717.75;5052628;28;20232;-67
2022/07/19 10:16:38;;;;;;;1999.90;999.90;;;;;;;35.01;27.83;95709.25;5036153;28;20190;-68
2022/07/19 10:19:28;;;;;;;1999.90;999.90;;;;;;;35.70;26.50;95714.78;5035683;28;20186;-65
2022/07/19 10:21:54;;;;;;;1999.90;999.90;;;;;;;35.51;26.76;95705.78;5035852;28;20193;-67
2022/07/19 10:24:42;;;;;;;1999.90;999.90;;;;;;;35.63;26.49;95695.59;5035837;28;20190;-65
2022/07/19 10:27:08;;;;;;;1999.90;999.90;;;;;;;35.60;26.31;95705.25;5035736;28;20193;-64
2022/07/19 10:29:33;;;;;;;1999.90;999.90;;;;;;;35.12;26.51;95697.56;5035683;28;20204;-66
2022/07/19 10:32:12;;;;;;;1999.90;999.90;;;;;;;35.68;25.94;95706.03;5051965;28;20220;-62
2022/07/19 10:34:39;;;;;;;1999.90;999.90;;;;;;;35.58;24.72;95699.38;5035963;28;20182;-64
2022/07/19 10:37:04;;;;;;;1999.90;999.90;;;;;;;35.00;25.37;95719.09;5052447;28;20182;-64
2022/07/19 10:39:35;;;;;;;1999.90;999.90;;;;;;;35.42;25.05;95703.47;5051879;28;20245;-64
2022/07/19 10:42:16;;;;;;;1999.90;999.90;;;;;;;35.97;24.88;95701.81;5035513;28;20244;-65
2022/07/19 10:44:57;;;;;;;1999.90;999.90;;;;;;;35.87;25.54;95715.09;5035433;28;20174;-64
2022/07/19 10:47:31;;;;;;;1999.90;999.90;;;;;;;34.56;24.52;95709.59;5035500;28;20194;-64
2022/07/19 10:50:05;;;;;;;1999.90;999.90;;;;;;;35.40;24.82;95706.13;5037094;28;20185;-65
2022/07/19 10:52:35;;;;;;;1999.90;999.90;;;;;;;36.22;24.07;95694.31;5038994;28;20182;-66